sensor_id;sensor_type;location;lat;lon;timestamp;temperature;humidity
25825;DHT22;13658;44.534;18.694;2023-12-20T00:00:46;0.40;99.90
25825;DHT22;13658;44.534;18.694;2023-12-20T00:03:15;0.40;99.90
25825;DHT22;13658;44.534;18.694;2023-12-20T00:05:41;0.50;99.90
25825;DHT22;13658;44.534;18.694;2023-12-20T00:08:10;0.50;99.90
25825;DHT22;13658;44.534;18.694;2023-12-20T00:10:36;0.50;99.90
25825;DHT22;13658;44.534;18.694;2023-12-20T00:13:02;0.20;99.90
25825;DHT22;13658;44.534;18.694;2023-12-20T00:15:30;0.00;99.90
25825;DHT22;13658;44.534;18.694;2023-12-20T00:17:56;-0.20;99.90
25825;DHT22;13658;44.534;18.694;2023-12-20T00:20:31;-0.10;99.90
25825;DHT22;13658;44.534;18.694;2023-12-20T00:22:57;0.00;99.90
25825;DHT22;13658;44.534;18.694;2023-12-20T00:25:24;0.10;99.90
25825;DHT22;13658;44.534;18.694;2023-12-20T00:27:50;0.20;99.90
25825;DHT22;13658;44.534;18.694;2023-12-20T00:30:25;0.10;99.90
25825;DHT22;13658;44.534;18.694;2023-12-20T00:32:51;0.10;99.90
25825;DHT22;13658;44.534;18.694;2023-12-20T00:35:16;-0.10;99.90
25825;DHT22;13658;44.534;18.694;2023-12-20T00:37:52;-0.20;99.90
25825;DHT22;13658;44.534;18.694;2023-12-20T00:40:18;-0.30;99.90
25825;DHT22;13658;44.534;18.694;2023-12-20T00:42:44;-0.20;99.90
25825;DHT22;13658;44.534;18.694;2023-12-20T00:45:09;0.00;99.90
25825;DHT22;13658;44.534;18.694;2023-12-20T00:47:51;0.10;99.90
25825;DHT22;13658;44.534;18.694;2023-12-20T00:50:23;0.20;99.90
25825;DHT22;13658;44.534;18.694;2023-12-20T00:52:49;0.20;99.90
25825;DHT22;13658;44.534;18.694;2023-12-20T00:55:14;0.10;99.90
25825;DHT22;13658;44.534;18.694;2023-12-20T00:57:40;0.00;99.90
25825;DHT22;13658;44.534;18.694;2023-12-20T01:00:07;0.00;99.90
25825;DHT22;13658;44.534;18.694;2023-12-20T01:02:47;-0.10;99.90
25825;DHT22;13658;44.534;18.694;2023-12-20T01:05:18;-0.10;99.90
25825;DHT22;13658;44.534;18.694;2023-12-20T01:07:45;-0.20;99.90
25825;DHT22;13658;44.534;18.694;2023-12-20T01:10:10;-0.20;99.90
25825;DHT22;13658;44.534;18.694;2023-12-20T01:12:37;-0.20;99.90
25825;DHT22;13658;44.534;18.694;2023-12-20T01:15:04;-0.30;99.90
25825;DHT22;13658;44.534;18.694;2023-12-20T01:17:36;-0.40;99.90
25825;DHT22;13658;44.534;18.694;2023-12-20T01:20:03;-0.30;99.90
25825;DHT22;13658;44.534;18.694;2023-12-20T01:22:35;-0.30;99.90
25825;DHT22;13658;44.534;18.694;2023-12-20T01:25:19;-0.30;99.90
25825;DHT22;13658;44.534;18.694;2023-12-20T01:27:45;-0.30;99.90
25825;DHT22;13658;44.534;18.694;2023-12-20T01:30:11;-0.20;99.90
25825;DHT22;13658;44.534;18.694;2023-12-20T01:32:37;-0.20;99.90
25825;DHT22;13658;44.534;18.694;2023-12-20T01:35:03;-0.20;99.90
25825;DHT22;13658;44.534;18.694;2023-12-20T01:37:29;-0.30;99.90
25825;DHT22;13658;44.534;18.694;2023-12-20T01:39:56;-0.40;99.90
25825;DHT22;13658;44.534;18.694;2023-12-20T01:42:22;-0.30;99.90
25825;DHT22;13658;44.534;18.694;2023-12-20T01:44:48;-0.20;99.90
25825;DHT22;13658;44.534;18.694;2023-12-20T01:47:14;-0.10;99.90
25825;DHT22;13658;44.534;18.694;2023-12-20T01:49:47;-0.10;99.90
25825;DHT22;13658;44.534;18.694;2023-12-20T01:52:32;-0.10;99.90
25825;DHT22;13658;44.534;18.694;2023-12-20T01:55:02;-0.20;99.90
25825;DHT22;13658;44.534;18.694;2023-12-20T01:57:37;-0.50;99.90
25825;DHT22;13658;44.534;18.694;2023-12-20T02:00:10;-0.60;99.90
25825;DHT22;13658;44.534;18.694;2023-12-20T02:02:40;-0.60;99.90
25825;DHT22;13658;44.534;18.694;2023-12-20T02:05:08;-0.50;99.90
25825;DHT22;13658;44.534;18.694;2023-12-20T02:07:37;-0.40;99.90
25825;DHT22;13658;44.534;18.694;2023-12-20T02:10:22;-0.40;99.90
25825;DHT22;13658;44.534;18.694;2023-12-20T02:12:48;-0.30;99.90
25825;DHT22;13658;44.534;18.694;2023-12-20T02:15:14;-0.20;99.90
25825;DHT22;13658;44.534;18.694;2023-12-20T02:17:44;-0.40;99.90
25825;DHT22;13658;44.534;18.694;2023-12-20T02:20:14;-0.70;99.90
25825;DHT22;13658;44.534;18.694;2023-12-20T02:22:44;-0.60;99.90
25825;DHT22;13658;44.534;18.694;2023-12-20T02:25:12;-0.60;99.90
25825;DHT22;13658;44.534;18.694;2023-12-20T02:27:42;-0.40;99.90
25825;DHT22;13658;44.534;18.694;2023-12-20T02:30:26;-0.30;99.90
25825;DHT22;13658;44.534;18.694;2023-12-20T02:32:55;-0.40;99.90
25825;DHT22;13658;44.534;18.694;2023-12-20T02:35:24;-0.40;99.90
25825;DHT22;13658;44.534;18.694;2023-12-20T02:37:53;-0.40;99.90
25825;DHT22;13658;44.534;18.694;2023-12-20T02:40:19;-0.40;99.90
25825;DHT22;13658;44.534;18.694;2023-12-20T02:42:47;-0.50;99.90
25825;DHT22;13658;44.534;18.694;2023-12-20T02:45:16;-0.70;99.90
25825;DHT22;13658;44.534;18.694;2023-12-20T02:47:45;-0.80;99.90
25825;DHT22;13658;44.534;18.694;2023-12-20T02:50:11;-0.90;99.90
25825;DHT22;13658;44.534;18.694;2023-12-20T02:52:46;-0.80;99.90
25825;DHT22;13658;44.534;18.694;2023-12-20T02:55:15;-0.70;99.90
25825;DHT22;13658;44.534;18.694;2023-12-20T02:57:44;-0.70;99.90
25825;DHT22;13658;44.534;18.694;2023-12-20T03:00:22;-0.60;99.90
25825;DHT22;13658;44.534;18.694;2023-12-20T03:02:51;-0.50;99.90
25825;DHT22;13658;44.534;18.694;2023-12-20T03:05:20;-0.60;99.90
25825;DHT22;13658;44.534;18.694;2023-12-20T03:07:49;-0.70;99.90
25825;DHT22;13658;44.534;18.694;2023-12-20T03:10:19;-0.60;99.90
25825;DHT22;13658;44.534;18.694;2023-12-20T03:12:44;-0.50;99.90
25825;DHT22;13658;44.534;18.694;2023-12-20T03:15:10;-0.70;99.90
25825;DHT22;13658;44.534;18.694;2023-12-20T03:17:55;-0.80;99.90
25825;DHT22;13658;44.534;18.694;2023-12-20T03:20:23;-1.00;99.90
25825;DHT22;13658;44.534;18.694;2023-12-20T03:22:58;-0.90;99.90
25825;DHT22;13658;44.534;18.694;2023-12-20T03:25:27;-0.80;99.90
25825;DHT22;13658;44.534;18.694;2023-12-20T03:27:56;-0.80;99.90
25825;DHT22;13658;44.534;18.694;2023-12-20T03:30:28;-0.80;99.90
25825;DHT22;13658;44.534;18.694;2023-12-20T03:32:56;-1.00;99.90
25825;DHT22;13658;44.534;18.694;2023-12-20T03:35:25;-1.00;99.90
25825;DHT22;13658;44.534;18.694;2023-12-20T03:37:57;-1.10;99.90
25825;DHT22;13658;44.534;18.694;2023-12-20T03:40:25;-1.10;99.90
25825;DHT22;13658;44.534;18.694;2023-12-20T03:42:54;-1.10;99.90
25825;DHT22;13658;44.534;18.694;2023-12-20T03:45:23;-0.90;99.90
25825;DHT22;13658;44.534;18.694;2023-12-20T03:48:01;-0.80;99.90
25825;DHT22;13658;44.534;18.694;2023-12-20T03:50:30;-0.70;99.90
25825;DHT22;13658;44.534;18.694;2023-12-20T03:52:59;-0.70;99.90
25825;DHT22;13658;44.534;18.694;2023-12-20T03:55:27;-0.70;99.90
25825;DHT22;13658;44.534;18.694;2023-12-20T03:57:59;-0.80;99.90
25825;DHT22;13658;44.534;18.694;2023-12-20T04:00:28;-0.90;99.90
25825;DHT22;13658;44.534;18.694;2023-12-20T04:02:57;-1.00;99.90
25825;DHT22;13658;44.534;18.694;2023-12-20T04:05:34;-1.00;99.90
25825;DHT22;13658;44.534;18.694;2023-12-20T04:08:03;-1.00;99.90
25825;DHT22;13658;44.534;18.694;2023-12-20T04:10:29;-0.90;99.90
25825;DHT22;13658;44.534;18.694;2023-12-20T04:12:55;-0.90;99.90
25825;DHT22;13658;44.534;18.694;2023-12-20T04:15:21;-1.10;99.90
25825;DHT22;13658;44.534;18.694;2023-12-20T04:18:06;-1.10;99.90
25825;DHT22;13658;44.534;18.694;2023-12-20T04:20:34;-1.30;99.90
25825;DHT22;13658;44.534;18.694;2023-12-20T04:23:12;-1.40;99.90
25825;DHT22;13658;44.534;18.694;2023-12-20T04:25:41;-1.50;99.90
25825;DHT22;13658;44.534;18.694;2023-12-20T04:28:10;-1.40;99.90
25825;DHT22;13658;44.534;18.694;2023-12-20T04:30:36;-1.40;99.90
25825;DHT22;13658;44.534;18.694;2023-12-20T04:33:05;-1.40;99.90
25825;DHT22;13658;44.534;18.694;2023-12-20T04:35:31;-1.40;99.90
25825;DHT22;13658;44.534;18.694;2023-12-20T04:37:59;-1.30;99.90
25825;DHT22;13658;44.534;18.694;2023-12-20T04:40:28;-1.20;99.90
25825;DHT22;13658;44.534;18.694;2023-12-20T04:42:54;-1.10;99.90
25825;DHT22;13658;44.534;18.694;2023-12-20T04:45:23;-1.10;99.90
25825;DHT22;13658;44.534;18.694;2023-12-20T04:48:08;-1.20;99.90
25825;DHT22;13658;44.534;18.694;2023-12-20T04:50:37;-1.10;99.90
25825;DHT22;13658;44.534;18.694;2023-12-20T04:53:09;-1.10;99.90
25825;DHT22;13658;44.534;18.694;2023-12-20T04:55:56;-1.10;99.90
25825;DHT22;13658;44.534;18.694;2023-12-20T04:58:22;-1.00;99.90
25825;DHT22;13658;44.534;18.694;2023-12-20T05:04:14;-1.10;99.90
25825;DHT22;13658;44.534;18.694;2023-12-20T05:06:40;-1.10;99.90
25825;DHT22;13658;44.534;18.694;2023-12-20T05:09:17;-1.10;99.90
25825;DHT22;13658;44.534;18.694;2023-12-20T05:12:01;-1.20;99.90
25825;DHT22;13658;44.534;18.694;2023-12-20T05:14:30;-1.30;99.90
25825;DHT22;13658;44.534;18.694;2023-12-20T05:16:56;-1.30;99.90
25825;DHT22;13658;44.534;18.694;2023-12-20T05:19:25;-1.40;99.90
25825;DHT22;13658;44.534;18.694;2023-12-20T05:21:58;-1.40;99.90
25825;DHT22;13658;44.534;18.694;2023-12-20T05:24:45;-1.50;99.90
25825;DHT22;13658;44.534;18.694;2023-12-20T05:27:11;-1.50;99.90
25825;DHT22;13658;44.534;18.694;2023-12-20T05:29:37;-1.30;99.90
25825;DHT22;13658;44.534;18.694;2023-12-20T05:32:25;-1.50;99.90
25825;DHT22;13658;44.534;18.694;2023-12-20T05:34:51;-1.70;99.90
25825;DHT22;13658;44.534;18.694;2023-12-20T05:37:17;-1.70;99.90
25825;DHT22;13658;44.534;18.694;2023-12-20T05:39:43;-1.70;99.90
25825;DHT22;13658;44.534;18.694;2023-12-20T05:42:15;-1.70;99.90
25825;DHT22;13658;44.534;18.694;2023-12-20T05:44:46;-1.70;99.90
25825;DHT22;13658;44.534;18.694;2023-12-20T05:47:15;-1.70;99.90
25825;DHT22;13658;44.534;18.694;2023-12-20T05:49:41;-1.70;99.90
25825;DHT22;13658;44.534;18.694;2023-12-20T05:52:25;-1.60;99.90
25825;DHT22;13658;44.534;18.694;2023-12-20T05:54:54;-1.60;99.90
25825;DHT22;13658;44.534;18.694;2023-12-20T05:57:26;-1.50;99.90
25825;DHT22;13658;44.534;18.694;2023-12-20T05:59:52;-1.40;99.90
25825;DHT22;13658;44.534;18.694;2023-12-20T06:02:30;-1.40;99.90
25825;DHT22;13658;44.534;18.694;2023-12-20T06:05:08;-1.30;99.90
25825;DHT22;13658;44.534;18.694;2023-12-20T06:07:40;-1.30;99.90
25825;DHT22;13658;44.534;18.694;2023-12-20T06:10:12;-1.30;99.90
25825;DHT22;13658;44.534;18.694;2023-12-20T06:12:37;-1.40;99.90
25825;DHT22;13658;44.534;18.694;2023-12-20T06:15:07;-1.60;99.90
25825;DHT22;13658;44.534;18.694;2023-12-20T06:17:33;-1.70;99.90
25825;DHT22;13658;44.534;18.694;2023-12-20T06:20:07;-1.80;99.90
25825;DHT22;13658;44.534;18.694;2023-12-20T06:22:36;-1.80;99.90
25825;DHT22;13658;44.534;18.694;2023-12-20T06:25:02;-1.60;99.90
25825;DHT22;13658;44.534;18.694;2023-12-20T06:27:29;-1.50;99.90
25825;DHT22;13658;44.534;18.694;2023-12-20T06:29:55;-1.40;99.90
25825;DHT22;13658;44.534;18.694;2023-12-20T06:32:27;-1.40;99.90
25825;DHT22;13658;44.534;18.694;2023-12-20T06:34:57;-1.30;99.90
25825;DHT22;13658;44.534;18.694;2023-12-20T06:37:26;-1.20;99.90
25825;DHT22;13658;44.534;18.694;2023-12-20T06:39:52;-1.10;99.90
25825;DHT22;13658;44.534;18.694;2023-12-20T06:42:36;-1.10;99.90
25825;DHT22;13658;44.534;18.694;2023-12-20T06:45:08;-1.00;99.90
25825;DHT22;13658;44.534;18.694;2023-12-20T06:47:40;-1.00;99.90
25825;DHT22;13658;44.534;18.694;2023-12-20T06:50:06;-1.20;99.90
25825;DHT22;13658;44.534;18.694;2023-12-20T06:52:39;-1.30;99.90
25825;DHT22;13658;44.534;18.694;2023-12-20T06:55:06;-1.40;99.90
25825;DHT22;13658;44.534;18.694;2023-12-20T06:57:38;-1.40;99.90
25825;DHT22;13658;44.534;18.694;2023-12-20T07:00:11;-1.40;99.90
25825;DHT22;13658;44.534;18.694;2023-12-20T07:02:40;-1.40;99.90
25825;DHT22;13658;44.534;18.694;2023-12-20T07:05:21;-1.50;99.90
25825;DHT22;13658;44.534;18.694;2023-12-20T07:07:47;-1.40;99.90
25825;DHT22;13658;44.534;18.694;2023-12-20T07:10:19;-1.20;99.90
25825;DHT22;13658;44.534;18.694;2023-12-20T07:12:45;-1.10;99.90
25825;DHT22;13658;44.534;18.694;2023-12-20T07:15:11;-1.10;99.90
25825;DHT22;13658;44.534;18.694;2023-12-20T07:17:37;-0.90;99.90
25825;DHT22;13658;44.534;18.694;2023-12-20T07:20:04;-0.90;99.90
25825;DHT22;13658;44.534;18.694;2023-12-20T07:22:33;-1.00;99.90
25825;DHT22;13658;44.534;18.694;2023-12-20T07:25:17;-1.00;99.90
25825;DHT22;13658;44.534;18.694;2023-12-20T07:27:43;-0.90;99.90
25825;DHT22;13658;44.534;18.694;2023-12-20T07:30:10;-0.80;99.90
25825;DHT22;13658;44.534;18.694;2023-12-20T07:32:36;-0.80;99.90
25825;DHT22;13658;44.534;18.694;2023-12-20T07:35:02;-0.70;99.90
25825;DHT22;13658;44.534;18.694;2023-12-20T07:37:28;-0.50;99.90
25825;DHT22;13658;44.534;18.694;2023-12-20T07:39:54;-0.50;99.90
25825;DHT22;13658;44.534;18.694;2023-12-20T07:42:35;-0.30;99.90
25825;DHT22;13658;44.534;18.694;2023-12-20T07:45:01;-0.20;99.90
25825;DHT22;13658;44.534;18.694;2023-12-20T07:47:27;-0.10;99.90
25825;DHT22;13658;44.534;18.694;2023-12-20T07:49:53;-0.10;99.90
25825;DHT22;13658;44.534;18.694;2023-12-20T07:55:31;0.90;99.90
25825;DHT22;13658;44.534;18.694;2023-12-20T07:57:59;2.50;99.90
25825;DHT22;13658;44.534;18.694;2023-12-20T08:00:25;4.00;99.90
25825;DHT22;13658;44.534;18.694;2023-12-20T08:02:51;5.10;99.90
25825;DHT22;13658;44.534;18.694;2023-12-20T08:05:17;5.60;99.90
25825;DHT22;13658;44.534;18.694;2023-12-20T08:07:46;5.20;99.90
25825;DHT22;13658;44.534;18.694;2023-12-20T08:10:12;5.30;99.90
25825;DHT22;13658;44.534;18.694;2023-12-20T08:12:38;6.30;99.90
25825;DHT22;13658;44.534;18.694;2023-12-20T08:15:17;6.60;99.90
25825;DHT22;13658;44.534;18.694;2023-12-20T08:17:43;6.80;99.90
25825;DHT22;13658;44.534;18.694;2023-12-20T08:20:10;7.30;99.90
25825;DHT22;13658;44.534;18.694;2023-12-20T08:22:36;8.40;99.90
25825;DHT22;13658;44.534;18.694;2023-12-20T08:25:01;8.30;99.90
25825;DHT22;13658;44.534;18.694;2023-12-20T08:27:43;8.60;99.90
25825;DHT22;13658;44.534;18.694;2023-12-20T08:30:09;8.60;99.90
25825;DHT22;13658;44.534;18.694;2023-12-20T08:32:35;8.60;99.90
25825;DHT22;13658;44.534;18.694;2023-12-20T08:35:01;8.40;99.90
25825;DHT22;13658;44.534;18.694;2023-12-20T08:37:28;8.80;99.90
25825;DHT22;13658;44.534;18.694;2023-12-20T08:39:55;10.00;99.90
25825;DHT22;13658;44.534;18.694;2023-12-20T08:42:21;9.30;99.90
25825;DHT22;13658;44.534;18.694;2023-12-20T08:44:47;10.00;99.90
25825;DHT22;13658;44.534;18.694;2023-12-20T08:47:16;9.90;99.90
25825;DHT22;13658;44.534;18.694;2023-12-20T08:49:43;10.00;99.90
25825;DHT22;13658;44.534;18.694;2023-12-20T08:52:09;10.20;99.90
25825;DHT22;13658;44.534;18.694;2023-12-20T08:54:38;10.70;99.90
25825;DHT22;13658;44.534;18.694;2023-12-20T08:57:04;10.70;99.90
25825;DHT22;13658;44.534;18.694;2023-12-20T08:59:38;10.60;99.90
25825;DHT22;13658;44.534;18.694;2023-12-20T09:02:04;10.50;99.90
25825;DHT22;13658;44.534;18.694;2023-12-20T09:04:30;10.30;99.90
25825;DHT22;13658;44.534;18.694;2023-12-20T09:06:56;10.70;99.90
25825;DHT22;13658;44.534;18.694;2023-12-20T09:09:22;11.30;99.90
25825;DHT22;13658;44.534;18.694;2023-12-20T09:11:50;11.30;99.90
25825;DHT22;13658;44.534;18.694;2023-12-20T09:14:17;11.70;99.90
25825;DHT22;13658;44.534;18.694;2023-12-20T09:16:44;11.50;99.90
25825;DHT22;13658;44.534;18.694;2023-12-20T09:19:10;11.70;99.90
25825;DHT22;13658;44.534;18.694;2023-12-20T09:21:36;12.40;99.90
25825;DHT22;13658;44.534;18.694;2023-12-20T09:24:10;13.20;99.90
25825;DHT22;13658;44.534;18.694;2023-12-20T09:26:36;14.70;99.90
25825;DHT22;13658;44.534;18.694;2023-12-20T09:29:02;14.90;99.90
25825;DHT22;13658;44.534;18.694;2023-12-20T09:31:37;15.80;99.90
25825;DHT22;13658;44.534;18.694;2023-12-20T09:34:03;15.30;99.90
25825;DHT22;13658;44.534;18.694;2023-12-20T09:36:29;15.50;99.90
25825;DHT22;13658;44.534;18.694;2023-12-20T09:39:03;14.30;99.90
25825;DHT22;13658;44.534;18.694;2023-12-20T09:41:31;12.60;99.90
25825;DHT22;13658;44.534;18.694;2023-12-20T09:44:02;11.40;99.90
25825;DHT22;13658;44.534;18.694;2023-12-20T09:46:37;11.10;99.90
25825;DHT22;13658;44.534;18.694;2023-12-20T09:49:20;10.60;99.90
25825;DHT22;13658;44.534;18.694;2023-12-20T09:52:05;10.30;99.90
25825;DHT22;13658;44.534;18.694;2023-12-20T09:54:35;10.00;99.90
25825;DHT22;13658;44.534;18.694;2023-12-20T09:57:01;10.20;99.90
25825;DHT22;13658;44.534;18.694;2023-12-20T09:59:27;10.70;99.90
25825;DHT22;13658;44.534;18.694;2023-12-20T10:02:01;11.40;99.90
25825;DHT22;13658;44.534;18.694;2023-12-20T10:04:32;12.20;99.90
25825;DHT22;13658;44.534;18.694;2023-12-20T10:07:10;12.00;99.90
25825;DHT22;13658;44.534;18.694;2023-12-20T10:09:36;12.10;99.90
25825;DHT22;13658;44.534;18.694;2023-12-20T10:12:02;12.40;99.90
25825;DHT22;13658;44.534;18.694;2023-12-20T10:14:34;12.30;99.90
25825;DHT22;13658;44.534;18.694;2023-12-20T10:17:06;12.50;99.90
25825;DHT22;13658;44.534;18.694;2023-12-20T10:19:32;12.90;99.90
25825;DHT22;13658;44.534;18.694;2023-12-20T10:22:04;12.40;99.90
25825;DHT22;13658;44.534;18.694;2023-12-20T10:24:40;12.50;99.90
25825;DHT22;13658;44.534;18.694;2023-12-20T10:27:18;12.90;99.90
25825;DHT22;13658;44.534;18.694;2023-12-20T10:29:45;11.70;99.90
25825;DHT22;13658;44.534;18.694;2023-12-20T10:32:26;11.30;99.90
25825;DHT22;13658;44.534;18.694;2023-12-20T10:34:56;11.30;99.90
25825;DHT22;13658;44.534;18.694;2023-12-20T10:37:22;11.00;99.90
25825;DHT22;13658;44.534;18.694;2023-12-20T10:39:55;10.60;99.90
25825;DHT22;13658;44.534;18.694;2023-12-20T10:42:33;10.10;99.90
25825;DHT22;13658;44.534;18.694;2023-12-20T10:45:02;10.20;99.90
25825;DHT22;13658;44.534;18.694;2023-12-20T10:47:30;10.10;99.90
25825;DHT22;13658;44.534;18.694;2023-12-20T10:50:22;9.80;99.90
25825;DHT22;13658;44.534;18.694;2023-12-20T10:53:00;9.60;99.90
25825;DHT22;13658;44.534;18.694;2023-12-20T10:55:26;9.30;99.90
25825;DHT22;13658;44.534;18.694;2023-12-20T10:57:54;9.30;99.90
25825;DHT22;13658;44.534;18.694;2023-12-20T11:00:24;9.30;99.90
25825;DHT22;13658;44.534;18.694;2023-12-20T11:02:50;9.40;99.90
25825;DHT22;13658;44.534;18.694;2023-12-20T11:05:31;9.30;99.90
25825;DHT22;13658;44.534;18.694;2023-12-20T11:08:07;9.40;99.90
25825;DHT22;13658;44.534;18.694;2023-12-20T11:10:49;9.30;99.90
25825;DHT22;13658;44.534;18.694;2023-12-20T11:13:23;9.40;99.90
25825;DHT22;13658;44.534;18.694;2023-12-20T11:15:52;9.20;99.90
25825;DHT22;13658;44.534;18.694;2023-12-20T11:18:18;9.20;99.90
25825;DHT22;13658;44.534;18.694;2023-12-20T11:20:44;9.00;99.90
25825;DHT22;13658;44.534;18.694;2023-12-20T11:23:10;8.70;99.90
25825;DHT22;13658;44.534;18.694;2023-12-20T11:25:56;8.60;99.90
25825;DHT22;13658;44.534;18.694;2023-12-20T11:28:35;8.40;99.90
25825;DHT22;13658;44.534;18.694;2023-12-20T11:31:06;8.40;99.90
25825;DHT22;13658;44.534;18.694;2023-12-20T11:33:36;8.40;99.90
25825;DHT22;13658;44.534;18.694;2023-12-20T11:36:18;8.30;99.90
25825;DHT22;13658;44.534;18.694;2023-12-20T11:38:58;8.50;99.90
25825;DHT22;13658;44.534;18.694;2023-12-20T11:41:44;8.60;99.90
25825;DHT22;13658;44.534;18.694;2023-12-20T11:44:30;8.80;99.90
25825;DHT22;13658;44.534;18.694;2023-12-20T11:46:59;8.80;99.90
25825;DHT22;13658;44.534;18.694;2023-12-20T11:49:25;8.80;99.90
25825;DHT22;13658;44.534;18.694;2023-12-20T11:51:51;8.90;99.90
25825;DHT22;13658;44.534;18.694;2023-12-20T11:54:17;9.00;99.90
25825;DHT22;13658;44.534;18.694;2023-12-20T11:56:44;9.20;99.90
25825;DHT22;13658;44.534;18.694;2023-12-20T11:59:38;9.30;99.90
25825;DHT22;13658;44.534;18.694;2023-12-20T12:02:04;9.60;99.90
25825;DHT22;13658;44.534;18.694;2023-12-20T12:04:29;9.70;99.90
25825;DHT22;13658;44.534;18.694;2023-12-20T12:06:58;9.80;99.90
25825;DHT22;13658;44.534;18.694;2023-12-20T12:09:24;9.80;99.90
25825;DHT22;13658;44.534;18.694;2023-12-20T12:11:50;9.70;99.90
25825;DHT22;13658;44.534;18.694;2023-12-20T12:14:16;9.80;99.90
25825;DHT22;13658;44.534;18.694;2023-12-20T12:16:51;9.90;99.90
25825;DHT22;13658;44.534;18.694;2023-12-20T12:19:37;9.90;99.90
25825;DHT22;13658;44.534;18.694;2023-12-20T12:22:14;9.90;99.90
25825;DHT22;13658;44.534;18.694;2023-12-20T12:24:43;9.90;99.90
25825;DHT22;13658;44.534;18.694;2023-12-20T12:27:10;9.80;99.90
25825;DHT22;13658;44.534;18.694;2023-12-20T12:29:36;9.80;99.90
25825;DHT22;13658;44.534;18.694;2023-12-20T12:32:09;9.80;99.90
25825;DHT22;13658;44.534;18.694;2023-12-20T12:34:35;9.70;99.90
25825;DHT22;13658;44.534;18.694;2023-12-20T12:37:03;9.70;99.90
25825;DHT22;13658;44.534;18.694;2023-12-20T12:39:29;9.80;99.90
25825;DHT22;13658;44.534;18.694;2023-12-20T12:41:56;9.80;99.90
25825;DHT22;13658;44.534;18.694;2023-12-20T12:44:23;9.80;99.90
25825;DHT22;13658;44.534;18.694;2023-12-20T12:46:54;9.90;99.90
25825;DHT22;13658;44.534;18.694;2023-12-20T12:49:24;9.90;99.90
25825;DHT22;13658;44.534;18.694;2023-12-20T12:51:50;10.00;99.90
25825;DHT22;13658;44.534;18.694;2023-12-20T12:54:16;10.10;99.90
25825;DHT22;13658;44.534;18.694;2023-12-20T12:56:44;10.20;99.90
25825;DHT22;13658;44.534;18.694;2023-12-20T12:59:10;10.10;99.90
25825;DHT22;13658;44.534;18.694;2023-12-20T13:01:39;10.20;99.90
25825;DHT22;13658;44.534;18.694;2023-12-20T13:04:05;10.20;99.90
25825;DHT22;13658;44.534;18.694;2023-12-20T13:06:38;10.20;99.90
25825;DHT22;13658;44.534;18.694;2023-12-20T13:09:06;10.20;99.90
25825;DHT22;13658;44.534;18.694;2023-12-20T13:11:33;10.30;99.90
25825;DHT22;13658;44.534;18.694;2023-12-20T13:13:59;10.30;99.90
25825;DHT22;13658;44.534;18.694;2023-12-20T13:16:34;10.40;99.90
25825;DHT22;13658;44.534;18.694;2023-12-20T13:19:00;10.30;99.90
25825;DHT22;13658;44.534;18.694;2023-12-20T13:21:47;10.20;99.90
25825;DHT22;13658;44.534;18.694;2023-12-20T13:24:14;10.20;99.90
25825;DHT22;13658;44.534;18.694;2023-12-20T13:26:40;10.20;99.90
25825;DHT22;13658;44.534;18.694;2023-12-20T13:29:06;10.20;99.90
25825;DHT22;13658;44.534;18.694;2023-12-20T13:31:34;10.10;99.90
25825;DHT22;13658;44.534;18.694;2023-12-20T13:34:08;10.00;99.90
25825;DHT22;13658;44.534;18.694;2023-12-20T13:36:34;10.00;99.90
25825;DHT22;13658;44.534;18.694;2023-12-20T13:39:00;10.00;99.90
25825;DHT22;13658;44.534;18.694;2023-12-20T13:41:35;10.00;99.90
25825;DHT22;13658;44.534;18.694;2023-12-20T13:44:00;10.10;99.90
25825;DHT22;13658;44.534;18.694;2023-12-20T13:46:41;10.10;99.90
25825;DHT22;13658;44.534;18.694;2023-12-20T13:49:07;10.00;99.90
25825;DHT22;13658;44.534;18.694;2023-12-20T13:51:33;9.90;99.90
25825;DHT22;13658;44.534;18.694;2023-12-20T13:53:59;9.90;99.90
25825;DHT22;13658;44.534;18.694;2023-12-20T13:56:28;10.00;99.90
25825;DHT22;13658;44.534;18.694;2023-12-20T13:58:54;10.00;99.90
25825;DHT22;13658;44.534;18.694;2023-12-20T14:01:23;10.10;99.90
25825;DHT22;13658;44.534;18.694;2023-12-20T14:03:49;10.20;99.90
25825;DHT22;13658;44.534;18.694;2023-12-20T14:06:15;10.40;99.90
25825;DHT22;13658;44.534;18.694;2023-12-20T14:08:42;10.30;99.90
25825;DHT22;13658;44.534;18.694;2023-12-20T14:11:08;10.30;99.90
25825;DHT22;13658;44.534;18.694;2023-12-20T14:13:34;10.30;99.90
25825;DHT22;13658;44.534;18.694;2023-12-20T14:16:03;10.30;99.90
25825;DHT22;13658;44.534;18.694;2023-12-20T14:18:29;10.30;99.90
25825;DHT22;13658;44.534;18.694;2023-12-20T14:20:56;10.40;99.90
25825;DHT22;13658;44.534;18.694;2023-12-20T14:23:30;10.30;99.90
25825;DHT22;13658;44.534;18.694;2023-12-20T14:25:56;10.30;99.90
25825;DHT22;13658;44.534;18.694;2023-12-20T14:28:24;10.20;99.90
25825;DHT22;13658;44.534;18.694;2023-12-20T14:30:59;10.10;99.90
25825;DHT22;13658;44.534;18.694;2023-12-20T14:33:25;10.00;99.90
25825;DHT22;13658;44.534;18.694;2023-12-20T14:35:54;9.90;99.90
25825;DHT22;13658;44.534;18.694;2023-12-20T14:38:20;9.80;99.90
25825;DHT22;13658;44.534;18.694;2023-12-20T14:40:49;9.70;99.90
25825;DHT22;13658;44.534;18.694;2023-12-20T14:43:16;9.60;99.90
25825;DHT22;13658;44.534;18.694;2023-12-20T14:45:45;9.70;99.90
25825;DHT22;13658;44.534;18.694;2023-12-20T14:48:11;9.60;99.90
25825;DHT22;13658;44.534;18.694;2023-12-20T14:50:40;9.70;99.90
25825;DHT22;13658;44.534;18.694;2023-12-20T14:53:09;9.70;99.90
25825;DHT22;13658;44.534;18.694;2023-12-20T14:55:35;9.60;99.90
25825;DHT22;13658;44.534;18.694;2023-12-20T14:58:04;9.60;99.90
25825;DHT22;13658;44.534;18.694;2023-12-20T15:00:39;9.70;99.90
25825;DHT22;13658;44.534;18.694;2023-12-20T15:03:08;9.60;99.90
25825;DHT22;13658;44.534;18.694;2023-12-20T15:05:34;9.70;99.90
25825;DHT22;13658;44.534;18.694;2023-12-20T15:08:03;9.70;99.90
25825;DHT22;13658;44.534;18.694;2023-12-20T15:10:44;9.60;99.90
25825;DHT22;13658;44.534;18.694;2023-12-20T15:13:10;9.60;99.90
25825;DHT22;13658;44.534;18.694;2023-12-20T15:15:40;9.60;99.90
25825;DHT22;13658;44.534;18.694;2023-12-20T15:18:09;9.60;99.90
25825;DHT22;13658;44.534;18.694;2023-12-20T15:20:37;9.50;99.90
25825;DHT22;13658;44.534;18.694;2023-12-20T15:23:03;9.50;99.90
25825;DHT22;13658;44.534;18.694;2023-12-20T15:25:32;9.40;99.90
25825;DHT22;13658;44.534;18.694;2023-12-20T15:28:01;9.50;99.90
25825;DHT22;13658;44.534;18.694;2023-12-20T15:30:31;9.40;99.90
25825;DHT22;13658;44.534;18.694;2023-12-20T15:33:06;9.30;99.90
25825;DHT22;13658;44.534;18.694;2023-12-20T15:35:41;9.20;99.90
25825;DHT22;13658;44.534;18.694;2023-12-20T15:38:10;9.10;99.90
25825;DHT22;13658;44.534;18.694;2023-12-20T15:40:38;9.20;99.90
25825;DHT22;13658;44.534;18.694;2023-12-20T15:43:07;9.10;99.90